createdAt,value
2022-11-28T00:01:36.932Z,4.90
2022-11-28T00:04:06.160Z,4.91
2022-11-28T00:06:36.785Z,4.89
2022-11-28T00:09:03.958Z,4.90
2022-11-28T00:11:30.565Z,4.88
2022-11-28T00:13:57.140Z,4.89
2022-11-28T00:16:24.662Z,4.88
2022-11-28T00:18:53.725Z,4.87
2022-11-28T00:21:23.021Z,4.87
2022-11-28T00:23:50.697Z,4.87
2022-11-28T00:26:21.029Z,4.87
2022-11-28T00:28:47.953Z,4.87
2022-11-28T00:31:15.637Z,4.87
2022-11-28T00:33:42.581Z,4.87
2022-11-28T00:36:09.963Z,4.86
2022-11-28T00:38:38.047Z,4.87
2022-11-28T00:41:06.758Z,4.87
2022-11-28T00:43:34.259Z,4.87
2022-11-28T00:46:01.204Z,4.86
2022-11-28T00:48:28.235Z,4.85
2022-11-28T00:50:56.176Z,4.86
2022-11-28T00:53:22.857Z,4.86
2022-11-28T00:55:50.835Z,4.86
2022-11-28T00:58:17.414Z,4.86
2022-11-28T01:00:44.070Z,4.85
2022-11-28T01:03:10.704Z,4.85
2022-11-28T01:05:41.041Z,4.85
2022-11-28T01:08:07.763Z,4.84
2022-11-28T01:10:34.401Z,4.83
2022-11-28T01:13:02.350Z,4.82
2022-11-28T01:15:29.010Z,4.82
2022-11-28T01:17:55.623Z,4.81
2022-11-28T01:20:22.289Z,4.80
2022-11-28T01:22:48.909Z,4.80
2022-11-28T01:25:15.758Z,4.79
2022-11-28T01:27:42.409Z,4.77
2022-11-28T01:30:10.814Z,4.77
2022-11-28T01:32:37.497Z,4.75
2022-11-28T01:35:04.806Z,4.75
2022-11-28T01:37:31.642Z,4.77
2022-11-28T01:39:58.449Z,4.75
2022-11-28T01:42:25.022Z,4.76
2022-11-28T01:45:15.826Z,4.75
2022-11-28T01:47:43.660Z,4.75
2022-11-28T01:50:12.784Z,4.75
2022-11-28T01:52:43.336Z,4.75
2022-11-28T01:55:12.655Z,4.75
2022-11-28T01:57:39.625Z,4.75
2022-11-28T02:00:08.974Z,4.75
2022-11-28T02:02:39.329Z,4.73
2022-11-28T02:05:06.823Z,4.72
2022-11-28T02:07:34.437Z,4.71
2022-11-28T02:10:03.361Z,4.70
2022-11-28T02:12:45.648Z,4.71
2022-11-28T02:15:22.954Z,4.69
2022-11-28T02:18:06.807Z,4.67
2022-11-28T02:21:02.762Z,4.66
2022-11-28T02:23:51.922Z,4.65
2022-11-28T02:26:48.480Z,4.63
2022-11-28T02:29:37.439Z,4.62
2022-11-28T02:32:17.275Z,4.60
2022-11-28T02:34:54.509Z,4.61
2022-11-28T02:37:29.052Z,4.59
2022-11-28T02:40:07.301Z,4.57
2022-11-28T02:42:43.129Z,4.55
2022-11-28T02:45:15.037Z,4.54
2022-11-28T02:47:48.646Z,4.53
2022-11-28T02:50:22.364Z,4.51
2022-11-28T02:52:51.974Z,4.50
2022-11-28T02:55:19.352Z,4.48
2022-11-28T02:57:48.808Z,4.47
2022-11-28T03:00:27.726Z,4.46
2022-11-28T03:03:12.665Z,4.45
2022-11-28T03:05:46.122Z,4.44
2022-11-28T03:08:30.365Z,4.42
2022-11-28T03:11:06.193Z,4.42
2022-11-28T03:13:41.133Z,4.41
2022-11-28T03:16:17.679Z,4.40
2022-11-28T03:18:55.465Z,4.39
2022-11-28T03:21:30.540Z,4.39
2022-11-28T03:24:01.310Z,4.37
2022-11-28T03:26:38.664Z,4.36
2022-11-28T03:29:13.518Z,4.33
2022-11-28T03:31:45.859Z,4.34
2022-11-28T03:34:19.813Z,4.32
2022-11-28T03:36:51.857Z,4.30
2022-11-28T03:39:23.343Z,4.29
2022-11-28T03:41:54.106Z,4.27
2022-11-28T03:44:26.744Z,4.25
2022-11-28T03:46:57.705Z,4.24
2022-11-28T03:49:30.277Z,4.22
2022-11-28T03:52:01.467Z,4.21
2022-11-28T03:54:34.283Z,4.20
2022-11-28T03:57:07.843Z,4.18
2022-11-28T03:59:36.918Z,4.16
2022-11-28T04:02:11.213Z,4.15
2022-11-28T04:04:48.449Z,4.14
2022-11-28T04:07:24.967Z,4.12
2022-11-28T04:10:00.021Z,4.10
2022-11-28T04:12:37.565Z,4.09
2022-11-28T04:15:09.129Z,4.08
2022-11-28T04:17:39.790Z,4.07
2022-11-28T04:20:12.191Z,4.07
2022-11-28T04:22:44.564Z,4.07
2022-11-28T04:25:13.897Z,4.07
2022-11-28T04:27:46.681Z,4.06
2022-11-28T04:30:14.328Z,4.06
2022-11-28T04:32:46.697Z,4.07
2022-11-28T04:35:18.757Z,4.07
2022-11-28T04:37:48.342Z,4.07
2022-11-28T04:40:17.821Z,4.09
2022-11-28T04:42:52.844Z,4.11
2022-11-28T04:45:26.534Z,4.12
2022-11-28T04:47:53.070Z,4.13
2022-11-28T04:50:23.472Z,4.14
2022-11-28T04:52:54.781Z,4.15
2022-11-28T04:55:31.241Z,4.16
2022-11-28T04:58:06.076Z,4.18
2022-11-28T05:00:34.379Z,4.19
2022-11-28T05:03:01.426Z,4.20
2022-11-28T05:05:29.492Z,4.21
2022-11-28T05:07:57.636Z,4.23
2022-11-28T05:10:24.250Z,4.23
2022-11-28T05:12:50.882Z,4.26
2022-11-28T05:15:17.601Z,4.27
2022-11-28T05:17:44.420Z,4.28
2022-11-28T05:20:11.636Z,4.30
2022-11-28T05:22:39.674Z,4.30
2022-11-28T05:25:07.051Z,4.32
2022-11-28T05:27:33.646Z,4.34
2022-11-28T05:30:00.272Z,4.34
2022-11-28T05:32:29.313Z,4.36
2022-11-28T05:34:55.939Z,4.37
2022-11-28T05:37:22.610Z,4.38
2022-11-28T05:39:50.607Z,4.39
2022-11-28T05:42:17.554Z,4.41
2022-11-28T05:44:44.119Z,4.40
2022-11-28T05:47:10.757Z,4.40
2022-11-28T05:49:37.657Z,4.40
2022-11-28T05:52:04.292Z,4.42
2022-11-28T05:54:30.839Z,4.42
2022-11-28T05:56:58.999Z,4.40
2022-11-28T05:59:25.657Z,4.40
2022-11-28T06:01:52.257Z,4.39
2022-11-28T06:04:18.982Z,4.39
2022-11-28T06:06:45.621Z,4.38
2022-11-28T06:09:12.197Z,4.36
2022-11-28T06:11:38.804Z,4.34
2022-11-28T06:14:06.773Z,4.32
2022-11-28T06:16:33.431Z,4.30
2022-11-28T06:19:01.563Z,4.29
2022-11-28T06:21:29.809Z,4.26
2022-11-28T06:23:57.227Z,4.26
2022-11-28T06:26:25.194Z,4.23
2022-11-28T06:28:52.028Z,4.21
2022-11-28T06:31:22.056Z,4.20
2022-11-28T06:33:48.931Z,4.18
2022-11-28T06:36:19.364Z,4.18
2022-11-28T06:38:46.512Z,4.17
2022-11-28T06:41:16.208Z,4.16
2022-11-28T06:43:43.152Z,4.15
2022-11-28T06:46:15.996Z,4.14
2022-11-28T06:48:44.622Z,4.14
2022-11-28T06:51:11.988Z,4.14
2022-11-28T06:53:39.383Z,4.13
2022-11-28T06:56:07.767Z,4.14
2022-11-28T06:58:35.328Z,4.14
2022-11-28T07:01:10.575Z,4.14
2022-11-28T07:03:37.752Z,4.14
2022-11-28T07:06:07.258Z,4.17
2022-11-28T07:08:34.409Z,4.16
2022-11-28T07:11:08.263Z,4.16
2022-11-28T07:13:35.092Z,4.18
2022-11-28T07:16:01.653Z,4.20
2022-11-28T07:18:28.417Z,4.21
2022-11-28T07:20:54.986Z,4.22
2022-11-28T07:23:22.959Z,4.24
2022-11-28T07:25:49.621Z,4.25
2022-11-28T07:28:18.503Z,4.27
2022-11-28T07:30:48.616Z,4.29
2022-11-28T07:33:15.186Z,4.31
2022-11-28T07:35:41.864Z,4.32
2022-11-28T07:38:08.542Z,4.33
2022-11-28T07:40:36.522Z,4.33
2022-11-28T07:43:03.147Z,4.35
2022-11-28T07:45:47.329Z,4.35
2022-11-28T07:48:16.266Z,4.39
2022-11-28T07:50:42.899Z,4.40
2022-11-28T07:53:09.461Z,4.43
2022-11-28T07:55:37.466Z,4.45
2022-11-28T07:58:04.493Z,4.47
2022-11-28T08:00:32.116Z,4.49
2022-11-28T08:02:58.712Z,4.51
2022-11-28T08:05:25.457Z,4.55
2022-11-28T08:07:52.230Z,4.58
2022-11-28T08:10:19.178Z,4.63
2022-11-28T08:12:47.216Z,4.63
2022-11-28T08:15:13.946Z,4.65
2022-11-28T08:17:40.811Z,4.67
2022-11-28T08:20:08.707Z,4.68
2022-11-28T08:22:35.462Z,4.69
2022-11-28T08:25:02.254Z,4.70
2022-11-28T08:27:28.900Z,4.71
2022-11-28T08:29:56.971Z,4.73
2022-11-28T08:32:23.617Z,4.75
2022-11-28T08:34:50.366Z,4.77
2022-11-28T08:37:17.004Z,4.77
2022-11-28T08:39:43.914Z,4.79
2022-11-28T08:42:10.886Z,4.79
2022-11-28T08:44:37.515Z,4.81
2022-11-28T08:47:05.853Z,4.83
2022-11-28T08:49:32.541Z,4.86
2022-11-28T08:51:59.197Z,4.90
2022-11-28T08:54:26.075Z,4.95
2022-11-28T08:56:52.702Z,4.98
2022-11-28T08:59:19.543Z,5.03
2022-11-28T09:01:46.299Z,5.06
2022-11-28T09:04:14.418Z,5.14
2022-11-28T09:06:41.210Z,5.18
2022-11-28T09:09:07.938Z,5.23
2022-11-28T09:11:34.531Z,5.27
2022-11-28T09:14:01.280Z,5.29
2022-11-28T09:16:28.034Z,5.33
2022-11-28T09:18:54.754Z,5.35
2022-11-28T09:21:22.970Z,5.37
2022-11-28T09:23:49.650Z,5.39
2022-11-28T09:26:18.568Z,5.44
2022-11-28T09:28:45.665Z,5.48
2022-11-28T09:31:13.242Z,5.49
2022-11-28T09:33:40.673Z,5.50
2022-11-28T09:36:09.674Z,5.52
2022-11-28T09:38:37.939Z,5.54
2022-11-28T09:41:34.289Z,5.58
2022-11-28T09:44:08.237Z,5.60
2022-11-28T09:46:37.279Z,5.64
2022-11-28T09:49:17.883Z,5.68
2022-11-28T09:51:51.423Z,5.72
2022-11-28T09:54:23.076Z,5.76
2022-11-28T09:56:50.513Z,5.74
2022-11-28T09:59:23.261Z,5.73
2022-11-28T10:01:59.492Z,5.70
2022-11-28T10:04:37.214Z,5.71
2022-11-28T10:07:10.921Z,5.74
2022-11-28T10:09:48.996Z,5.77
2022-11-28T10:12:31.997Z,5.79
2022-11-28T10:15:13.264Z,5.81
2022-11-28T10:17:49.554Z,5.85
2022-11-28T10:20:20.896Z,5.86
2022-11-28T10:22:51.956Z,5.89
2022-11-28T10:25:24.675Z,5.90
2022-11-28T10:27:51.443Z,5.95
2022-11-28T10:30:23.924Z,6.00
2022-11-28T10:33:00.512Z,6.03
2022-11-28T10:35:35.821Z,6.06
2022-11-28T10:38:02.791Z,6.09
2022-11-28T10:40:42.733Z,6.10
2022-11-28T10:43:19.330Z,6.12
2022-11-28T10:45:52.527Z,6.13
2022-11-28T10:48:39.447Z,6.13
2022-11-28T10:51:21.302Z,6.16
2022-11-28T10:53:57.184Z,6.17
2022-11-28T10:56:35.697Z,6.21
2022-11-28T10:59:08.655Z,6.20
2022-11-28T11:01:39.650Z,6.21
2022-11-28T11:04:16.940Z,6.23
2022-11-28T11:07:06.890Z,6.24
2022-11-28T11:09:30.679Z,6.27
2022-11-28T11:11:59.418Z,6.34
2022-11-28T11:14:34.154Z,6.40
2022-11-28T11:17:00.879Z,6.45
2022-11-28T11:19:33.322Z,6.52
2022-11-28T11:22:06.152Z,6.56
2022-11-28T11:24:33.060Z,6.59
2022-11-28T11:27:07.002Z,6.62
2022-11-28T11:29:35.398Z,6.65
2022-11-28T11:32:03.778Z,6.70
2022-11-28T11:34:36.561Z,6.73
2022-11-28T11:37:30.124Z,6.76
2022-11-28T11:39:56.931Z,6.77
2022-11-28T11:42:26.711Z,6.76
2022-11-28T11:44:54.092Z,6.77
2022-11-28T11:47:40.646Z,6.77
2022-11-28T11:50:16.795Z,6.79
2022-11-28T11:52:43.668Z,6.79
2022-11-28T11:55:15.356Z,6.80
2022-11-28T11:57:48.212Z,6.83
2022-11-28T12:00:17.966Z,6.86
2022-11-28T12:02:46.869Z,6.87
2022-11-28T12:05:16.420Z,6.86
2022-11-28T12:07:56.584Z,6.85
2022-11-28T12:10:26.311Z,6.87
2022-11-28T12:12:54.583Z,6.86
2022-11-28T12:15:28.253Z,6.87
2022-11-28T12:18:06.545Z,6.85
2022-11-28T12:20:41.873Z,6.83
2022-11-28T12:23:24.975Z,6.79
2022-11-28T12:25:56.248Z,6.81
2022-11-28T12:28:36.462Z,6.82
2022-11-28T12:31:10.945Z,6.82
2022-11-28T12:33:50.925Z,6.83
2022-11-28T12:36:26.023Z,6.83
2022-11-28T12:39:00.369Z,6.86
2022-11-28T12:41:59.712Z,6.86
2022-11-28T12:44:35.875Z,6.87
2022-11-28T12:47:15.459Z,6.87
2022-11-28T12:49:50.450Z,6.86
2022-11-28T12:52:25.682Z,6.86
2022-11-28T12:55:06.960Z,6.84
2022-11-28T12:57:39.915Z,6.83
2022-11-28T13:00:15.204Z,6.83
2022-11-28T13:02:55.005Z,6.80
2022-11-28T13:05:37.712Z,6.80
2022-11-28T13:08:23.722Z,6.80
2022-11-28T13:10:55.649Z,6.80
2022-11-28T13:13:26.737Z,6.80
2022-11-28T13:16:07.426Z,6.79
2022-11-28T13:18:40.538Z,6.79
2022-11-28T13:21:23.374Z,6.79
2022-11-28T13:23:56.142Z,6.78
2022-11-28T13:26:38.405Z,6.77
2022-11-28T13:29:14.120Z,6.76
2022-11-28T13:31:49.152Z,6.75
2022-11-28T13:34:18.150Z,6.72
2022-11-28T13:39:41.955Z,6.73
2022-11-28T13:42:58.932Z,6.73
2022-11-28T13:45:25.137Z,6.69
2022-11-28T13:47:58.482Z,6.67
2022-11-28T13:50:38.303Z,6.65
2022-11-28T13:53:23.891Z,6.64
2022-11-28T13:55:52.422Z,6.63
2022-11-28T13:58:23.618Z,6.62
2022-11-28T14:01:05.422Z,6.61
2022-11-28T14:03:36.646Z,6.60
2022-11-28T14:06:07.062Z,6.58
2022-11-28T14:08:37.142Z,6.55
2022-11-28T14:11:57.491Z,6.54
2022-11-28T14:14:43.205Z,6.53
2022-11-28T14:17:25.236Z,6.50
2022-11-28T14:20:03.278Z,6.47
2022-11-28T14:22:43.063Z,6.45
2022-11-28T14:25:16.714Z,6.44
2022-11-28T14:27:49.729Z,6.43
2022-11-28T14:30:26.100Z,6.43
2022-11-28T14:32:57.355Z,6.39
2022-11-28T14:36:04.535Z,6.36
2022-11-28T14:38:42.921Z,6.32
2022-11-28T14:41:10.881Z,6.30
2022-11-28T14:43:39.206Z,6.27
2022-11-28T14:46:24.960Z,6.23
2022-11-28T14:49:24.959Z,6.21
2022-11-28T14:55:14.973Z,6.15
2022-11-28T14:57:55.203Z,6.14
2022-11-28T15:00:24.624Z,6.13
2022-11-28T15:03:07.518Z,6.11
2022-11-28T15:05:39.941Z,6.08
2022-11-28T15:08:36.820Z,6.06
2022-11-28T15:11:20.797Z,6.04
2022-11-28T15:14:01.989Z,6.03
2022-11-28T15:16:30.704Z,6.01
2022-11-28T15:19:03.891Z,5.99
2022-11-28T15:21:30.677Z,5.96
2022-11-28T15:23:58.757Z,5.93
2022-11-28T15:26:29.080Z,5.92
2022-11-28T15:29:08.737Z,5.92
2022-11-28T15:31:35.574Z,5.92
2022-11-28T15:34:02.458Z,5.90
2022-11-28T15:36:30.409Z,5.88
2022-11-28T15:38:58.438Z,5.86
2022-11-28T15:41:27.217Z,5.85
2022-11-28T15:43:54.978Z,5.84
2022-11-28T15:46:29.675Z,5.82
2022-11-28T15:48:56.262Z,5.82
2022-11-28T15:51:28.102Z,5.82
2022-11-28T15:53:55.186Z,5.78
2022-11-28T15:56:23.386Z,5.76
2022-11-28T15:58:50.214Z,5.77
2022-11-28T16:01:19.015Z,5.76
2022-11-28T16:03:52.253Z,5.76
2022-11-28T16:06:20.453Z,5.74
2022-11-28T16:08:52.356Z,5.73
2022-11-28T16:11:21.845Z,5.71
2022-11-28T16:13:51.602Z,5.69
2022-11-28T16:16:21.112Z,5.65
2022-11-28T16:18:55.678Z,5.62
2022-11-28T16:21:24.923Z,5.61
2022-11-28T16:23:51.922Z,5.60
2022-11-28T16:26:24.512Z,5.58
2022-11-28T16:29:00.040Z,5.59
2022-11-28T16:31:28.081Z,5.59
2022-11-28T16:33:55.272Z,5.59
2022-11-28T16:36:24.747Z,5.58
2022-11-28T16:38:54.046Z,5.55
2022-11-28T16:41:23.216Z,5.54
2022-11-28T16:43:53.888Z,5.52
2022-11-28T16:46:23.608Z,5.51
2022-11-28T16:48:55.643Z,5.50
2022-11-28T16:51:36.586Z,5.49
2022-11-28T16:54:31.502Z,5.47
2022-11-28T16:57:08.866Z,5.47
2022-11-28T16:59:35.755Z,5.46
2022-11-28T17:02:04.123Z,5.43
2022-11-28T17:04:31.280Z,5.43
2022-11-28T17:06:59.778Z,5.42
2022-11-28T17:09:26.480Z,5.40
2022-11-28T17:11:58.303Z,5.41
2022-11-28T17:14:24.955Z,5.41
2022-11-28T17:16:51.625Z,5.41
2022-11-28T17:19:19.622Z,5.41
2022-11-28T17:21:49.581Z,5.40
2022-11-28T17:24:17.890Z,5.39
2022-11-28T17:26:44.787Z,5.40
2022-11-28T17:29:13.264Z,5.40
2022-11-28T17:31:40.039Z,5.37
2022-11-28T17:34:09.670Z,5.35
2022-11-28T17:36:37.765Z,5.33
2022-11-28T17:39:05.461Z,5.32
2022-11-28T17:41:32.102Z,5.31
2022-11-28T17:43:58.783Z,5.29
2022-11-28T17:46:25.608Z,5.31
2022-11-28T17:48:52.167Z,5.28
2022-11-28T17:51:18.739Z,5.26
2022-11-28T17:53:46.678Z,5.25
2022-11-28T17:56:13.668Z,5.25
2022-11-28T17:58:40.625Z,5.25
2022-11-28T18:01:09.752Z,5.24
2022-11-28T18:03:36.982Z,5.23
2022-11-28T18:06:03.649Z,5.23
2022-11-28T18:08:30.254Z,5.21
2022-11-28T18:11:05.855Z,5.18
2022-11-28T18:13:32.783Z,5.16
2022-11-28T18:15:59.553Z,5.14
2022-11-28T18:18:26.314Z,5.12
2022-11-28T18:20:52.930Z,5.11
2022-11-28T18:23:19.594Z,5.10
2022-11-28T18:25:46.458Z,5.09
2022-11-28T18:28:18.793Z,5.08
2022-11-28T18:30:47.138Z,5.09
2022-11-28T18:33:15.521Z,5.07
2022-11-28T18:35:42.710Z,5.07
2022-11-28T18:38:09.447Z,5.07
2022-11-28T18:40:36.754Z,5.05
2022-11-28T18:43:03.874Z,5.05
2022-11-28T18:45:32.780Z,5.04
2022-11-28T18:48:00.518Z,5.04
2022-11-28T18:50:27.490Z,5.04
2022-11-28T18:52:54.149Z,5.03
2022-11-28T18:55:20.728Z,5.00
2022-11-28T18:57:47.327Z,4.99
2022-11-28T19:00:15.135Z,4.97
2022-11-28T19:02:43.903Z,4.94
2022-11-28T19:05:10.496Z,4.94
2022-11-28T19:07:37.089Z,4.92
2022-11-28T19:10:04.149Z,4.92
2022-11-28T19:12:30.720Z,4.93
2022-11-28T19:15:02.068Z,4.91
2022-11-28T19:17:29.519Z,4.90
2022-11-28T19:19:57.515Z,4.91
2022-11-28T19:22:24.110Z,4.91
2022-11-28T19:24:50.637Z,4.91
2022-11-28T19:27:17.255Z,4.93
2022-11-28T19:29:44.350Z,4.93
2022-11-28T19:32:11.258Z,4.93
2022-11-28T19:34:37.905Z,4.95
2022-11-28T19:37:05.869Z,4.93
2022-11-28T19:39:32.473Z,4.93
2022-11-28T19:41:59.081Z,4.92
2022-11-28T19:44:25.798Z,4.93
2022-11-28T19:46:52.404Z,4.92
2022-11-28T19:49:21.337Z,4.89
2022-11-28T19:51:48.809Z,4.90
2022-11-28T19:54:17.433Z,4.91
2022-11-28T19:56:44.054Z,4.89
2022-11-28T19:59:10.769Z,4.88
2022-11-28T20:01:38.478Z,4.89
2022-11-28T20:04:05.308Z,4.88
2022-11-28T20:06:32.606Z,4.89
2022-11-28T20:09:02.226Z,4.90
2022-11-28T20:11:32.298Z,4.91
2022-11-28T20:14:01.492Z,4.91
2022-11-28T20:16:29.351Z,4.91
2022-11-28T20:18:56.141Z,4.90
2022-11-28T20:21:22.798Z,4.90
2022-11-28T20:23:51.633Z,4.90
2022-11-28T20:26:20.374Z,4.90
2022-11-28T20:28:48.881Z,4.90
2022-11-28T20:31:21.280Z,4.91
2022-11-28T20:33:48.737Z,4.89
2022-11-28T20:36:17.160Z,4.89
2022-11-28T20:38:43.887Z,4.90
2022-11-28T20:41:12.278Z,4.92
2022-11-28T20:43:39.794Z,4.91
2022-11-28T20:46:10.828Z,4.91
2022-11-28T20:48:38.413Z,4.92
2022-11-28T20:51:07.734Z,4.93
2022-11-28T20:53:34.297Z,4.93
2022-11-28T20:56:01.931Z,4.93
2022-11-28T20:58:28.841Z,4.93
2022-11-28T21:00:56.022Z,4.93
2022-11-28T21:03:24.934Z,4.94
2022-11-28T21:05:55.234Z,4.94
2022-11-28T21:08:24.514Z,4.95
2022-11-28T21:10:51.147Z,4.94
2022-11-28T21:13:17.753Z,4.95
2022-11-28T21:15:45.456Z,4.94
2022-11-28T21:18:12.542Z,4.93
2022-11-28T21:20:42.157Z,4.92
2022-11-28T21:23:09.928Z,4.92
2022-11-28T21:25:37.421Z,4.92
2022-11-28T21:28:04.593Z,4.90
2022-11-28T21:30:31.602Z,4.92
2022-11-28T21:32:58.271Z,4.91
2022-11-28T21:35:24.974Z,4.91
2022-11-28T21:37:52.948Z,4.91
2022-11-28T21:40:19.628Z,4.92
2022-11-28T21:42:46.199Z,4.92
2022-11-28T21:45:12.759Z,4.92
2022-11-28T21:47:39.316Z,4.92
2022-11-28T21:50:07.057Z,4.92
2022-11-28T21:52:33.651Z,4.90
2022-11-28T21:55:01.571Z,4.89
2022-11-28T21:57:28.146Z,4.88
2022-11-28T21:59:54.781Z,4.86
2022-11-28T22:02:24.963Z,4.85
2022-11-28T22:04:54.355Z,4.86
2022-11-28T22:07:21.092Z,4.86
2022-11-28T22:09:47.913Z,4.87
2022-11-28T22:12:15.883Z,4.88
2022-11-28T22:14:42.490Z,4.87
2022-11-28T22:17:09.153Z,4.86
2022-11-28T22:19:35.720Z,4.87
2022-11-28T22:22:02.289Z,4.86
2022-11-28T22:24:28.966Z,4.86
2022-11-28T22:26:55.548Z,4.85
2022-11-28T22:29:23.715Z,4.83
2022-11-28T22:31:50.315Z,4.83
2022-11-28T22:34:16.970Z,4.82
2022-11-28T22:36:43.575Z,4.82
2022-11-28T22:39:10.680Z,4.81
2022-11-28T22:41:37.309Z,4.79
2022-11-28T22:44:04.159Z,4.78
2022-11-28T22:46:32.542Z,4.77
2022-11-28T22:48:59.959Z,4.76
2022-11-28T22:51:27.668Z,4.76
2022-11-28T22:53:55.154Z,4.76
2022-11-28T22:56:22.059Z,4.76
2022-11-28T22:58:48.990Z,4.78
2022-11-28T23:01:17.490Z,4.78
2022-11-28T23:03:46.553Z,4.78
2022-11-28T23:06:14.967Z,4.78
2022-11-28T23:08:41.933Z,4.77
2022-11-28T23:11:10.602Z,4.77
2022-11-28T23:13:38.376Z,4.75
2022-11-28T23:16:10.041Z,4.75
2022-11-28T23:18:36.615Z,4.74
2022-11-28T23:21:04.570Z,4.73
2022-11-28T23:23:31.479Z,4.73
2022-11-28T23:26:04.943Z,4.73
2022-11-28T23:28:32.011Z,4.74
2022-11-28T23:31:04.984Z,4.73
2022-11-28T23:33:31.894Z,4.72
2022-11-28T23:35:58.495Z,4.72
2022-11-28T23:38:26.522Z,4.70
2022-11-28T23:40:56.459Z,4.68
2022-11-28T23:43:23.289Z,4.69
2022-11-28T23:45:49.945Z,4.69
2022-11-28T23:48:16.599Z,4.65
2022-11-28T23:50:43.232Z,4.66
2022-11-28T23:53:09.877Z,4.64
2022-11-28T23:55:37.952Z,4.64
2022-11-28T23:58:04.719Z,4.63
